Time;durP1;ratioP1;P1;durP2;ratioP2;P2;SDS_P1;SDS_P2;PMS_P1;PMS_P2;Temp;Humidity;BMP_temperature;BMP_pressure;BME280_temperature;BME280_humidity;BME280_pressure;Samples;Min_cycle;Max_cycle;Signal;HPM_P1;HPM_P2
2021/10/17 00:00:28;;;;;;;42.05;4.38;;;;;;;;;;5066239;28;20023;-46
2021/10/17 00:02:55;;;;;;;35.50;4.97;;;;;;;;;;5068812;28;20030;-46
2021/10/17 00:05:23;;;;;;;33.95;5.05;;;;;;;;;;5067383;28;20712;-48
2021/10/17 00:07:51;;;;;;;28.17;4.15;;;;;;;;;;5066838;28;20074;-53
2021/10/17 00:10:30;;;;;;;29.23;4.68;;;;;;;;;;5067623;28;20029;-52
2021/10/17 00:12:59;;;;;;;39.70;4.82;;;;;;;;;;5068271;28;20024;-50
2021/10/17 00:15:28;;;;;;;38.40;5.50;;;;;;;;;;5066001;28;20499;-51
2021/10/17 00:17:55;;;;;;;34.00;4.43;;;;;;;;;;5066459;28;20040;-45
2021/10/17 00:20:23;;;;;;;38.90;4.90;;;;;;;;;;5055520;28;20032;-60
2021/10/17 00:22:50;;;;;;;34.78;4.40;;;;;;;;;;5067145;28;20291;-44
2021/10/17 00:25:17;;;;;;;34.17;4.95;;;;;;;;;;5068838;28;20035;-44
2021/10/17 00:27:44;;;;;;;51.75;5.88;;;;;;;;;;5068351;28;20024;-46
2021/10/17 00:30:15;;;;;;;37.45;4.80;;;;;;;;;;5068802;28;20067;-44
2021/10/17 00:32:43;;;;;;;36.38;5.30;;;;;;;;;;5062622;28;20124;-59
2021/10/17 00:35:10;;;;;;;37.90;4.72;;;;;;;;;;5067977;28;20025;-44
2021/10/17 00:37:38;;;;;;;32.78;4.45;;;;;;;;;;5066966;28;20037;-45
2021/10/17 00:40:07;;;;;;;31.10;4.63;;;;;;;;;;5069315;28;20016;-44
2021/10/17 00:42:34;;;;;;;31.20;4.80;;;;;;;;;;5068853;28;20017;-45
2021/10/17 00:45:06;;;;;;;46.58;5.53;;;;;;;;;;5083891;28;20508;-46
2021/10/17 00:47:33;;;;;;;31.90;4.75;;;;;;;;;;5063660;28;20025;-51
2021/10/17 00:50:00;;;;;;;31.15;5.20;;;;;;;;;;5067301;28;20024;-61
2021/10/17 00:52:28;;;;;;;33.85;5.13;;;;;;;;;;5068924;28;20119;-50
2021/10/17 00:54:55;;;;;;;25.95;4.90;;;;;;;;;;5074037;28;20017;-57
2021/10/17 00:57:22;;;;;;;29.60;4.43;;;;;;;;;;5062487;28;20052;-48
2021/10/17 00:59:49;;;;;;;33.28;4.35;;;;;;;;;;5073936;28;20082;-57
2021/10/17 01:02:16;;;;;;;24.40;4.50;;;;;;;;;;5068738;28;20029;-47
2021/10/17 01:04:43;;;;;;;28.65;4.97;;;;;;;;;;5068554;28;20017;-50
2021/10/17 01:07:11;;;;;;;22.40;4.40;;;;;;;;;;5069069;28;20039;-44
2021/10/17 01:09:39;;;;;;;29.02;4.82;;;;;;;;;;5065269;28;20021;-49
2021/10/17 01:12:07;;;;;;;30.70;4.35;;;;;;;;;;5067856;28;20056;-49
2021/10/17 01:14:34;;;;;;;28.30;5.28;;;;;;;;;;5064641;28;20385;-47
2021/10/17 01:17:02;;;;;;;27.83;5.80;;;;;;;;;;5062224;28;20058;-56
2021/10/17 01:19:29;;;;;;;33.35;5.85;;;;;;;;;;5063197;28;20077;-45
2021/10/17 01:21:56;;;;;;;26.27;5.45;;;;;;;;;;5073026;28;20566;-50
2021/10/17 01:24:23;;;;;;;30.83;5.53;;;;;;;;;;5066379;28;20078;-47
2021/10/17 01:26:51;;;;;;;24.20;4.88;;;;;;;;;;5067724;28;20025;-60
2021/10/17 01:29:18;;;;;;;34.13;5.70;;;;;;;;;;5064992;28;20025;-47
2021/10/17 01:31:49;;;;;;;34.88;6.05;;;;;;;;;;5063757;28;20017;-45
2021/10/17 01:34:17;;;;;;;25.75;5.28;;;;;;;;;;5065160;28;20020;-46
2021/10/17 01:36:44;;;;;;;25.10;5.22;;;;;;;;;;5064201;28;20036;-49
2021/10/17 01:39:12;;;;;;;38.03;6.30;;;;;;;;;;5066084;28;20083;-49
2021/10/17 01:41:40;;;;;;;26.75;5.82;;;;;;;;;;5067469;28;20020;-48
2021/10/17 01:44:12;;;;;;;25.48;5.43;;;;;;;;;;5068436;28;20477;-45
2021/10/17 01:46:39;;;;;;;25.98;6.63;;;;;;;;;;5069835;28;20425;-46
2021/10/17 01:49:07;;;;;;;32.90;5.82;;;;;;;;;;5067735;28;20017;-47
2021/10/17 01:51:34;;;;;;;34.53;6.07;;;;;;;;;;5068393;28;20032;-48
2021/10/17 01:54:04;;;;;;;33.25;6.25;;;;;;;;;;5067192;28;20024;-47
2021/10/17 01:56:33;;;;;;;30.60;5.63;;;;;;;;;;5069253;28;20048;-47
2021/10/17 01:59:00;;;;;;;26.33;5.28;;;;;;;;;;5069047;28;20016;-52
2021/10/17 02:01:28;;;;;;;28.33;5.90;;;;;;;;;;5067172;28;20009;-55
2021/10/17 02:03:56;;;;;;;32.88;6.30;;;;;;;;;;5067796;28;20059;-46
2021/10/17 02:06:23;;;;;;;24.70;5.40;;;;;;;;;;5068128;28;20029;-50
2021/10/17 02:08:51;;;;;;;25.98;5.55;;;;;;;;;;5066536;28;20137;-47
2021/10/17 02:11:18;;;;;;;24.13;5.28;;;;;;;;;;5066208;28;20017;-45
2021/10/17 02:13:46;;;;;;;32.80;5.78;;;;;;;;;;5067253;28;20020;-49
2021/10/17 02:16:14;;;;;;;27.38;5.97;;;;;;;;;;5067722;28;20041;-44
2021/10/17 02:18:42;;;;;;;25.08;5.53;;;;;;;;;;5066103;28;20380;-49
2021/10/17 02:21:11;;;;;;;31.15;6.55;;;;;;;;;;5067127;28;20052;-53
2021/10/17 02:23:38;;;;;;;28.80;6.00;;;;;;;;;;5069119;28;20028;-48
2021/10/17 02:26:07;;;;;;;25.17;4.95;;;;;;;;;;5069150;28;20422;-46
2021/10/17 02:28:35;;;;;;;25.33;5.65;;;;;;;;;;5068828;28;20021;-49
2021/10/17 02:31:03;;;;;;;23.85;5.38;;;;;;;;;;5067800;28;20032;-47
2021/10/17 02:33:30;;;;;;;24.23;5.85;;;;;;;;;;5067918;28;20032;-45
2021/10/17 02:35:57;;;;;;;18.98;5.32;;;;;;;;;;5070336;28;20024;-46
2021/10/17 02:38:24;;;;;;;25.38;6.15;;;;;;;;;;5068937;28;20052;-49
2021/10/17 02:40:51;;;;;;;28.92;5.90;;;;;;;;;;5069633;28;20644;-47
2021/10/17 02:43:18;;;;;;;22.00;5.57;;;;;;;;;;5069845;28;20029;-47
2021/10/17 02:45:45;;;;;;;28.15;5.25;;;;;;;;;;5070836;28;20025;-47
2021/10/17 02:48:12;;;;;;;23.10;5.32;;;;;;;;;;5068236;28;20537;-47
2021/10/17 02:50:39;;;;;;;23.20;5.57;;;;;;;;;;5071365;28;20025;-52
2021/10/17 02:53:06;;;;;;;21.15;4.95;;;;;;;;;;5070718;28;20032;-46
2021/10/17 02:55:33;;;;;;;22.48;5.30;;;;;;;;;;5071294;28;20101;-47
2021/10/17 02:58:00;;;;;;;29.88;5.72;;;;;;;;;;5070749;28;20029;-46
2021/10/17 03:00:27;;;;;;;18.63;4.35;;;;;;;;;;5071738;28;20016;-49
2021/10/17 03:02:54;;;;;;;24.23;5.20;;;;;;;;;;5072124;28;20017;-50
2021/10/17 03:05:22;;;;;;;19.45;4.72;;;;;;;;;;5071886;28;20024;-46
2021/10/17 03:07:49;;;;;;;18.38;5.35;;;;;;;;;;5072505;28;20048;-46
2021/10/17 03:10:17;;;;;;;20.17;5.00;;;;;;;;;;5071493;28;20472;-47
2021/10/17 03:12:44;;;;;;;25.60;5.50;;;;;;;;;;5071791;28;20375;-50
2021/10/17 03:15:11;;;;;;;20.88;4.55;;;;;;;;;;5070662;28;20099;-47
2021/10/17 03:17:38;;;;;;;23.30;5.40;;;;;;;;;;5071330;28;20383;-48
2021/10/17 03:20:05;;;;;;;16.67;5.15;;;;;;;;;;5071417;28;20433;-49
2021/10/17 03:22:32;;;;;;;13.70;4.55;;;;;;;;;;5071937;28;20391;-52
2021/10/17 03:24:59;;;;;;;18.10;4.90;;;;;;;;;;5072099;28;20032;-48
2021/10/17 03:27:27;;;;;;;16.08;4.68;;;;;;;;;;5071806;28;20375;-51
2021/10/17 03:29:54;;;;;;;14.77;4.30;;;;;;;;;;5070978;28;20024;-48
2021/10/17 03:32:21;;;;;;;24.73;5.22;;;;;;;;;;5071501;28;20093;-47
2021/10/17 03:34:48;;;;;;;18.25;4.75;;;;;;;;;;5071794;28;20483;-48
2021/10/17 03:37:15;;;;;;;14.18;4.28;;;;;;;;;;5070819;28;20127;-48
2021/10/17 03:39:42;;;;;;;13.88;4.45;;;;;;;;;;5071344;28;20412;-46
2021/10/17 03:42:09;;;;;;;14.15;5.18;;;;;;;;;;5071152;28;20383;-47
2021/10/17 03:44:36;;;;;;;17.02;4.55;;;;;;;;;;5071826;28;20029;-48
2021/10/17 03:47:04;;;;;;;22.38;5.03;;;;;;;;;;5071497;28;20367;-51
2021/10/17 03:49:31;;;;;;;18.70;4.53;;;;;;;;;;5070483;28;20641;-47
2021/10/17 03:51:58;;;;;;;16.17;4.32;;;;;;;;;;5071712;28;20025;-48
2021/10/17 03:54:25;;;;;;;13.82;3.70;;;;;;;;;;5070053;28;20008;-51
2021/10/17 03:56:52;;;;;;;14.38;4.20;;;;;;;;;;5070834;28;20135;-49
2021/10/17 03:59:20;;;;;;;21.30;4.50;;;;;;;;;;5069974;28;20091;-53
2021/10/17 04:01:47;;;;;;;13.20;4.07;;;;;;;;;;5069650;28;20464;-47
2021/10/17 04:04:14;;;;;;;16.02;4.03;;;;;;;;;;5070735;28;20020;-45
2021/10/17 04:06:41;;;;;;;16.95;4.10;;;;;;;;;;5073876;28;20123;-47
2021/10/17 04:09:09;;;;;;;17.83;4.35;;;;;;;;;;5073768;28;20021;-46
2021/10/17 04:11:36;;;;;;;17.27;4.85;;;;;;;;;;5074721;28;20039;-47
2021/10/17 04:14:03;;;;;;;19.38;4.22;;;;;;;;;;5074773;28;20021;-49
2021/10/17 04:16:30;;;;;;;12.77;4.15;;;;;;;;;;5074613;28;20060;-51
2021/10/17 04:18:57;;;;;;;11.85;4.13;;;;;;;;;;5074037;28;20023;-47
2021/10/17 04:21:24;;;;;;;15.90;4.32;;;;;;;;;;5074513;28;20036;-50
2021/10/17 04:23:51;;;;;;;17.58;4.82;;;;;;;;;;5074677;28;20435;-53
2021/10/17 04:26:18;;;;;;;13.50;4.32;;;;;;;;;;5074339;28;20440;-47
2021/10/17 04:28:45;;;;;;;13.70;4.35;;;;;;;;;;5073600;28;20383;-46
2021/10/17 04:31:13;;;;;;;14.10;4.55;;;;;;;;;;5073428;28;20081;-52
2021/10/17 04:33:40;;;;;;;16.27;3.97;;;;;;;;;;5073879;28;20032;-48
2021/10/17 04:36:07;;;;;;;12.45;4.18;;;;;;;;;;5074103;28;20055;-50
2021/10/17 04:38:34;;;;;;;16.60;4.10;;;;;;;;;;5074403;28;20021;-50
2021/10/17 04:41:01;;;;;;;13.68;3.90;;;;;;;;;;5073436;28;20051;-47
2021/10/17 04:43:28;;;;;;;13.13;4.20;;;;;;;;;;5073502;28;20094;-47
2021/10/17 04:45:55;;;;;;;12.88;3.75;;;;;;;;;;5073756;28;20024;-51
2021/10/17 04:48:23;;;;;;;15.65;4.38;;;;;;;;;;5073871;28;20487;-47
2021/10/17 04:50:50;;;;;;;17.35;5.45;;;;;;;;;;5073529;28;20491;-46
2021/10/17 04:53:17;;;;;;;13.27;4.18;;;;;;;;;;5073757;28;20547;-46
2021/10/17 04:55:44;;;;;;;9.77;3.92;;;;;;;;;;5073535;28;20408;-47
2021/10/17 04:58:11;;;;;;;12.55;4.00;;;;;;;;;;5073712;28;20090;-48
2021/10/17 05:00:38;;;;;;;13.18;4.05;;;;;;;;;;5087908;28;20039;-47
2021/10/17 05:03:05;;;;;;;12.35;3.78;;;;;;;;;;5073644;28;20392;-48
2021/10/17 05:05:33;;;;;;;10.98;3.95;;;;;;;;;;5073578;28;20464;-47
2021/10/17 05:08:01;;;;;;;13.52;4.28;;;;;;;;;;5073712;28;20657;-48
2021/10/17 05:10:28;;;;;;;13.43;4.20;;;;;;;;;;5072677;28;20017;-45
2021/10/17 05:12:55;;;;;;;12.05;3.65;;;;;;;;;;5072993;28;20021;-46
2021/10/17 05:15:22;;;;;;;11.23;4.20;;;;;;;;;;5073746;28;20024;-47
2021/10/17 05:17:49;;;;;;;9.55;3.53;;;;;;;;;;5072927;28;20039;-48
2021/10/17 05:20:16;;;;;;;11.95;3.90;;;;;;;;;;5072987;28;20039;-50
2021/10/17 05:22:43;;;;;;;17.15;4.15;;;;;;;;;;5073738;28;20395;-49
2021/10/17 05:25:11;;;;;;;13.80;4.13;;;;;;;;;;5073382;28;20016;-54
2021/10/17 05:27:38;;;;;;;11.05;3.50;;;;;;;;;;5073568;28;20044;-48
2021/10/17 05:30:06;;;;;;;13.68;3.65;;;;;;;;;;5073434;28;20021;-46
2021/10/17 05:32:33;;;;;;;11.50;3.53;;;;;;;;;;5071949;28;20471;-47
2021/10/17 05:35:00;;;;;;;16.30;3.40;;;;;;;;;;5072426;28;20408;-52
2021/10/17 05:37:27;;;;;;;13.55;3.72;;;;;;;;;;5072418;28;20120;-55
2021/10/17 05:39:54;;;;;;;11.82;4.03;;;;;;;;;;5072656;28;20494;-49
2021/10/17 05:42:21;;;;;;;10.02;3.75;;;;;;;;;;5072245;28;20028;-48
2021/10/17 05:44:48;;;;;;;12.38;3.50;;;;;;;;;;5072680;28;20070;-46
2021/10/17 05:47:16;;;;;;;9.90;3.85;;;;;;;;;;5072659;28;20074;-50
2021/10/17 05:49:43;;;;;;;11.65;3.67;;;;;;;;;;5072593;28;20053;-58
2021/10/17 05:52:10;;;;;;;11.07;4.07;;;;;;;;;;5070474;28;20051;-50
2021/10/17 05:54:37;;;;;;;10.02;3.83;;;;;;;;;;5072016;28;20021;-52
2021/10/17 05:57:04;;;;;;;14.98;3.40;;;;;;;;;;5072028;28;20561;-47
2021/10/17 05:59:31;;;;;;;7.13;3.38;;;;;;;;;;5072592;28;20024;-50
2021/10/17 06:01:58;;;;;;;14.38;4.10;;;;;;;;;;5069739;28;20035;-46
2021/10/17 06:04:25;;;;;;;17.00;3.63;;;;;;;;;;5071643;28;20021;-52
2021/10/17 06:06:52;;;;;;;11.93;3.63;;;;;;;;;;5072477;28;20028;-49
2021/10/17 06:09:20;;;;;;;11.07;3.83;;;;;;;;;;5072615;28;20067;-50
2021/10/17 06:11:47;;;;;;;11.43;3.13;;;;;;;;;;5071380;28;20027;-52
2021/10/17 06:14:14;;;;;;;16.23;4.07;;;;;;;;;;5072300;28;20024;-47
2021/10/17 06:16:41;;;;;;;12.15;3.55;;;;;;;;;;5071586;28;20033;-46
2021/10/17 06:19:08;;;;;;;11.57;3.53;;;;;;;;;;5071745;28;20024;-48
2021/10/17 06:21:35;;;;;;;10.55;3.13;;;;;;;;;;5071653;28;20024;-48
2021/10/17 06:24:02;;;;;;;9.30;3.03;;;;;;;;;;5071715;28;20062;-45
2021/10/17 06:26:29;;;;;;;16.45;3.30;;;;;;;;;;5071571;28;20035;-46
2021/10/17 06:28:56;;;;;;;9.25;2.90;;;;;;;;;;5071283;28;20020;-49
2021/10/17 06:31:23;;;;;;;10.77;3.50;;;;;;;;;;5071373;28;20046;-50
2021/10/17 06:33:50;;;;;;;8.23;2.85;;;;;;;;;;5071461;28;20026;-47
2021/10/17 06:36:17;;;;;;;9.50;3.70;;;;;;;;;;5071798;28;20036;-47
2021/10/17 06:38:44;;;;;;;11.77;3.33;;;;;;;;;;5071918;28;20017;-48
2021/10/17 06:41:11;;;;;;;9.68;3.38;;;;;;;;;;5071758;28;20029;-46
2021/10/17 06:43:38;;;;;;;6.82;2.70;;;;;;;;;;5070117;28;20023;-47
2021/10/17 06:46:05;;;;;;;12.98;3.03;;;;;;;;;;5071037;28;20055;-46
2021/10/17 06:48:32;;;;;;;9.30;2.65;;;;;;;;;;5071778;28;20021;-49
2021/10/17 06:50:59;;;;;;;8.77;2.58;;;;;;;;;;5071235;28;20017;-49
2021/10/17 06:53:26;;;;;;;7.70;2.78;;;;;;;;;;5071217;28;20027;-47
2021/10/17 06:55:53;;;;;;;10.80;2.80;;;;;;;;;;5071143;28;20045;-47
2021/10/17 06:58:20;;;;;;;7.65;2.35;;;;;;;;;;5071932;28;20114;-49
2021/10/17 07:00:47;;;;;;;8.32;2.83;;;;;;;;;;5071512;28;20055;-50
2021/10/17 07:03:14;;;;;;;6.80;2.50;;;;;;;;;;5070512;28;20017;-49
2021/10/17 07:05:41;;;;;;;8.93;2.45;;;;;;;;;;5071729;28;20017;-45
2021/10/17 07:08:08;;;;;;;7.07;2.58;;;;;;;;;;5071747;28;20380;-47
2021/10/17 07:10:35;;;;;;;9.20;2.50;;;;;;;;;;5071369;28;20074;-47
2021/10/17 07:13:02;;;;;;;8.23;2.58;;;;;;;;;;5070584;28;20025;-45
2021/10/17 07:15:29;;;;;;;7.28;2.65;;;;;;;;;;5071262;28;20020;-44
2021/10/17 07:17:56;;;;;;;5.75;2.40;;;;;;;;;;5071069;28;20115;-49
2021/10/17 07:20:23;;;;;;;9.55;2.85;;;;;;;;;;5071747;28;20017;-47
2021/10/17 07:22:50;;;;;;;8.80;2.50;;;;;;;;;;5071381;28;20440;-48
2021/10/17 07:25:17;;;;;;;6.03;2.30;;;;;;;;;;5071921;28;20379;-50
2021/10/17 07:27:44;;;;;;;9.95;2.05;;;;;;;;;;5071569;28;20020;-46
2021/10/17 07:30:12;;;;;;;4.93;2.30;;;;;;;;;;5071448;28;20387;-49
2021/10/17 07:32:39;;;;;;;7.28;2.55;;;;;;;;;;5070294;28;20471;-47
2021/10/17 07:35:06;;;;;;;6.25;2.50;;;;;;;;;;5071608;28;20051;-50
2021/10/17 07:37:33;;;;;;;6.50;2.65;;;;;;;;;;5071676;28;20507;-51
2021/10/17 07:40:00;;;;;;;9.13;2.50;;;;;;;;;;5075264;28;20407;-47
2021/10/17 07:42:27;;;;;;;7.15;2.10;;;;;;;;;;5074910;28;20105;-52
2021/10/17 07:44:54;;;;;;;6.13;2.10;;;;;;;;;;5075013;28;20031;-49
2021/10/17 07:47:21;;;;;;;6.00;2.20;;;;;;;;;;5073474;28;20024;-49
2021/10/17 07:49:48;;;;;;;7.07;2.13;;;;;;;;;;5074650;28;20383;-46
2021/10/17 07:52:15;;;;;;;5.45;2.15;;;;;;;;;;5074458;28;20356;-49
2021/10/17 07:54:42;;;;;;;8.48;2.40;;;;;;;;;;5074800;28;20542;-48
2021/10/17 07:57:10;;;;;;;5.63;2.30;;;;;;;;;;5074883;28;20388;-45
2021/10/17 07:59:38;;;;;;;5.63;1.95;;;;;;;;;;5074928;28;20024;-48
2021/10/17 08:02:06;;;;;;;10.60;2.05;;;;;;;;;;5074827;28;20392;-48
2021/10/17 08:04:33;;;;;;;5.07;2.20;;;;;;;;;;5073768;28;20017;-47
2021/10/17 08:07:03;;;;;;;5.82;2.03;;;;;;;;;;5073860;28;20433;-47
2021/10/17 08:09:30;;;;;;;4.55;1.70;;;;;;;;;;5074354;28;20041;-46
2021/10/17 08:11:57;;;;;;;6.15;2.35;;;;;;;;;;5073244;28;20387;-47
2021/10/17 08:14:24;;;;;;;5.75;1.73;;;;;;;;;;5074221;28;20380;-48
2021/10/17 08:16:52;;;;;;;5.55;2.17;;;;;;;;;;5074526;28;20115;-45
2021/10/17 08:19:19;;;;;;;6.93;1.95;;;;;;;;;;5072521;28;20023;-48
2021/10/17 08:21:46;;;;;;;13.10;2.53;;;;;;;;;;5074406;28;20029;-47
2021/10/17 08:24:13;;;;;;;5.05;1.77;;;;;;;;;;5074602;28;20021;-47
2021/10/17 08:26:41;;;;;;;7.05;1.70;;;;;;;;;;5074281;28;20040;-49
2021/10/17 08:29:08;;;;;;;4.28;1.83;;;;;;;;;;5074433;28;20116;-48
2021/10/17 08:31:35;;;;;;;5.65;2.10;;;;;;;;;;5074045;28;20368;-50
2021/10/17 08:34:03;;;;;;;5.30;1.88;;;;;;;;;;5073664;28;20387;-48
2021/10/17 08:36:30;;;;;;;6.55;2.30;;;;;;;;;;5073743;28;20450;-45
2021/10/17 08:38:57;;;;;;;7.32;2.17;;;;;;;;;;5074107;28;20490;-47
2021/10/17 08:41:24;;;;;;;5.72;2.22;;;;;;;;;;5073829;28;20383;-52
2021/10/17 08:43:51;;;;;;;7.80;2.38;;;;;;;;;;5073167;28;20383;-47
2021/10/17 08:46:19;;;;;;;6.72;1.83;;;;;;;;;;5074207;28;20078;-50
2021/10/17 08:48:47;;;;;;;10.57;2.78;;;;;;;;;;5072269;28;20033;-51
2021/10/17 08:51:14;;;;;;;4.78;1.80;;;;;;;;;;5073730;28;20099;-45
2021/10/17 08:53:41;;;;;;;5.95;1.90;;;;;;;;;;5073322;28;20506;-49
2021/10/17 08:56:13;;;;;;;8.30;1.95;;;;;;;;;;5072823;28;20072;-47
2021/10/17 08:58:40;;;;;;;5.85;2.08;;;;;;;;;;5073187;28;20021;-47
2021/10/17 09:01:14;;;;;;;4.25;1.70;;;;;;;;;;5072461;28;20464;-50
2021/10/17 09:03:41;;;;;;;7.75;2.30;;;;;;;;;;5073413;28;20035;-50
2021/10/17 09:06:15;;;;;;;6.15;1.92;;;;;;;;;;5073290;28;20468;-48
2021/10/17 09:08:42;;;;;;;3.38;1.60;;;;;;;;;;5073528;28;20028;-48
2021/10/17 09:11:09;;;;;;;3.10;1.60;;;;;;;;;;5073625;28;20017;-53
2021/10/17 09:13:36;;;;;;;5.53;1.80;;;;;;;;;;5073026;28;20746;-52
2021/10/17 09:16:24;;;;;;;3.95;1.80;;;;;;;;;;5072909;28;20041;-52
2021/10/17 09:19:05;;;;;;;5.22;1.88;;;;;;;;;;5072344;28;20154;-49
2021/10/17 09:21:32;;;;;;;4.30;1.83;;;;;;;;;;5073196;28;20060;-54
2021/10/17 09:23:59;;;;;;;8.98;2.15;;;;;;;;;;5072513;28;20031;-50
2021/10/17 09:26:26;;;;;;;5.53;2.08;;;;;;;;;;5073313;28;20024;-47
2021/10/17 09:28:53;;;;;;;4.50;1.58;;;;;;;;;;5073184;28;20735;-48
2021/10/17 09:31:21;;;;;;;3.78;1.60;;;;;;;;;;5073115;28;20099;-52
2021/10/17 09:33:55;;;;;;;5.53;1.85;;;;;;;;;;5072540;28;20093;-50
2021/10/17 09:36:22;;;;;;;3.45;1.50;;;;;;;;;;5072534;28;20068;-54
2021/10/17 09:38:56;;;;;;;4.45;1.60;;;;;;;;;;5072942;28;20100;-50
2021/10/17 09:41:31;;;;;;;7.85;1.70;;;;;;;;;;5072669;28;20028;-50
2021/10/17 09:43:59;;;;;;;2.40;1.40;;;;;;;;;;5072540;28;20028;-50
2021/10/17 09:46:27;;;;;;;3.08;1.23;;;;;;;;;;5072545;28;20021;-48
2021/10/17 09:48:55;;;;;;;5.13;1.60;;;;;;;;;;5072483;28;20391;-53
2021/10/17 09:51:29;;;;;;;5.38;1.27;;;;;;;;;;5072528;28;20027;-45
2021/10/17 09:53:57;;;;;;;3.83;1.63;;;;;;;;;;5071989;28;20031;-47
2021/10/17 09:56:38;;;;;;;2.80;1.23;;;;;;;;;;5072187;28;20056;-49
2021/10/17 09:59:08;;;;;;;3.55;1.50;;;;;;;;;;5072197;28;20021;-48
2021/10/17 10:01:36;;;;;;;4.45;1.60;;;;;;;;;;5071204;28;20024;-49
2021/10/17 10:04:04;;;;;;;3.67;1.40;;;;;;;;;;5071953;28;20035;-51
2021/10/17 10:06:32;;;;;;;4.03;1.40;;;;;;;;;;5072208;28;20021;-47
2021/10/17 10:09:01;;;;;;;3.85;1.30;;;;;;;;;;5072217;28;20418;-49
2021/10/17 10:11:28;;;;;;;4.72;1.73;;;;;;;;;;5072375;28;20023;-50
2021/10/17 10:13:56;;;;;;;3.05;1.27;;;;;;;;;;5071685;28;20095;-47
2021/10/17 10:16:25;;;;;;;5.15;1.50;;;;;;;;;;5072442;28;20025;-47
2021/10/17 10:18:54;;;;;;;3.17;1.30;;;;;;;;;;5072223;28;20031;-48
2021/10/17 10:21:22;;;;;;;2.15;1.10;;;;;;;;;;5072167;28;20029;-47
2021/10/17 10:23:53;;;;;;;1.80;0.90;;;;;;;;;;5071841;28;20055;-50
2021/10/17 10:26:24;;;;;;;3.10;1.23;;;;;;;;;;5071700;28;20024;-47
2021/10/17 10:28:52;;;;;;;2.97;1.30;;;;;;;;;;5071675;28;20035;-48
2021/10/17 10:31:37;;;;;;;2.15;1.00;;;;;;;;;;5070668;28;20034;-50
2021/10/17 10:34:04;;;;;;;5.03;0.90;;;;;;;;;;5071544;28;20020;-48
2021/10/17 10:36:44;;;;;;;4.25;1.70;;;;;;;;;;5070743;28;20058;-47
2021/10/17 10:39:18;;;;;;;2.53;1.10;;;;;;;;;;5071151;28;20039;-45
2021/10/17 10:41:50;;;;;;;2.05;1.10;;;;;;;;;;5072091;28;20537;-50
2021/10/17 10:44:18;;;;;;;5.70;1.10;;;;;;;;;;5071198;28;20073;-46
2021/10/17 10:46:48;;;;;;;2.58;0.88;;;;;;;;;;5071369;28;20037;-48
2021/10/17 10:49:33;;;;;;;3.70;1.10;;;;;;;;;;5070173;28;20376;-47
2021/10/17 10:52:00;;;;;;;3.35;1.33;;;;;;;;;;5070943;28;20435;-47
2021/10/17 10:54:30;;;;;;;4.45;1.00;;;;;;;;;;5070913;28;20142;-49
2021/10/17 10:56:58;;;;;;;4.60;1.02;;;;;;;;;;5070227;28;20036;-48
2021/10/17 10:59:28;;;;;;;6.13;1.15;;;;;;;;;;5070855;28;20109;-49
2021/10/17 11:02:11;;;;;;;4.63;1.13;;;;;;;;;;5070877;28;20032;-51
2021/10/17 11:04:41;;;;;;;3.80;1.00;;;;;;;;;;5070262;28;20016;-49
2021/10/17 11:07:18;;;;;;;8.00;1.40;;;;;;;;;;5071169;28;20025;-47
2021/10/17 11:09:45;;;;;;;4.55;0.90;;;;;;;;;;5071177;28;20099;-49
2021/10/17 11:12:31;;;;;;;3.60;1.00;;;;;;;;;;5071747;28;20444;-47
2021/10/17 11:15:02;;;;;;;2.33;1.20;;;;;;;;;;5075438;28;20025;-52
2021/10/17 11:17:32;;;;;;;4.07;1.10;;;;;;;;;;5075982;28;20093;-53
2021/10/17 11:19:59;;;;;;;1.75;0.90;;;;;;;;;;5074560;28;20387;-50
2021/10/17 11:22:26;;;;;;;4.20;1.00;;;;;;;;;;5075848;28;20459;-47
2021/10/17 11:24:57;;;;;;;1.58;0.90;;;;;;;;;;5075079;28;20039;-49
2021/10/17 11:27:25;;;;;;;2.78;1.00;;;;;;;;;;5075116;28;20027;-51
2021/10/17 11:29:52;;;;;;;2.33;0.65;;;;;;;;;;5075676;28;20391;-52
2021/10/17 11:32:19;;;;;;;2.10;1.00;;;;;;;;;;5075873;28;20395;-49
2021/10/17 11:35:04;;;;;;;3.63;0.95;;;;;;;;;;5074917;28;20422;-50
2021/10/17 11:37:33;;;;;;;2.15;0.75;;;;;;;;;;5075822;28;20395;-54
2021/10/17 11:40:00;;;;;;;1.42;0.70;;;;;;;;;;5075445;28;20029;-51
2021/10/17 11:42:28;;;;;;;3.45;0.77;;;;;;;;;;5075917;28;20029;-50
2021/10/17 11:44:55;;;;;;;3.38;0.70;;;;;;;;;;5075423;28;20120;-56
2021/10/17 11:47:23;;;;;;;5.97;0.90;;;;;;;;;;5074238;28;20070;-48
2021/10/17 11:49:50;;;;;;;3.97;0.98;;;;;;;;;;5074016;28;20027;-51
2021/10/17 11:52:18;;;;;;;6.03;0.98;;;;;;;;;;5074178;28;20037;-48
2021/10/17 11:54:46;;;;;;;2.17;0.80;;;;;;;;;;5072842;28;20024;-46
2021/10/17 11:57:33;;;;;;;2.35;0.95;;;;;;;;;;5073705;28;20036;-48
2021/10/17 12:00:00;;;;;;;4.43;0.88;;;;;;;;;;5057457;28;20024;-46
2021/10/17 12:02:34;;;;;;;3.72;0.70;;;;;;;;;;5074555;28;20029;-50
2021/10/17 12:05:01;;;;;;;3.92;0.70;;;;;;;;;;5074477;28;20020;-52
2021/10/17 12:07:30;;;;;;;2.90;0.80;;;;;;;;;;5073462;28;20472;-53
2021/10/17 12:09:57;;;;;;;4.32;0.88;;;;;;;;;;5073795;28;20486;-54
2021/10/17 12:12:25;;;;;;;3.63;0.90;;;;;;;;;;5061869;28;20016;-56
2021/10/17 12:15:04;;;;;;;2.95;0.93;;;;;;;;;;5069589;28;20056;-51
2021/10/17 12:17:31;;;;;;;11.15;1.35;;;;;;;;;;5074005;28;20036;-51
2021/10/17 12:20:02;;;;;;;10.85;1.00;;;;;;;;;;5074039;28;20403;-52
2021/10/17 12:22:29;;;;;;;5.00;1.08;;;;;;;;;;5074412;28;20024;-53
2021/10/17 12:25:00;;;;;;;3.78;1.08;;;;;;;;;;5073365;28;20048;-54
2021/10/17 12:27:34;;;;;;;6.13;1.05;;;;;;;;;;5073466;28;20017;-54
2021/10/17 12:30:09;;;;;;;8.38;1.20;;;;;;;;;;5073245;28;20484;-53
2021/10/17 12:32:46;;;;;;;15.52;1.35;;;;;;;;;;5073921;28;20021;-57
2021/10/17 12:35:32;;;;;;;8.05;1.30;;;;;;;;;;5074222;28;20071;-55
2021/10/17 12:38:07;;;;;;;8.95;1.52;;;;;;;;;;5073293;28;20112;-52
2021/10/17 12:40:36;;;;;;;8.55;1.35;;;;;;;;;;5072630;28;20036;-53
2021/10/17 12:43:04;;;;;;;8.05;1.33;;;;;;;;;;5073916;28;20031;-50
2021/10/17 12:45:32;;;;;;;10.70;1.45;;;;;;;;;;5074507;28;20357;-51
2021/10/17 12:48:00;;;;;;;17.23;1.35;;;;;;;;;;5073724;28;20494;-56
2021/10/17 12:50:28;;;;;;;22.52;1.75;;;;;;;;;;5072753;28;20476;-54
2021/10/17 12:52:55;;;;;;;13.70;1.95;;;;;;;;;;5073441;28;20028;-56
2021/10/17 12:55:27;;;;;;;8.77;1.00;;;;;;;;;;5072605;28;20033;-60
2021/10/17 12:58:01;;;;;;;7.18;1.20;;;;;;;;;;5072392;28;20474;-56
2021/10/17 13:00:28;;;;;;;6.35;1.15;;;;;;;;;;5071995;28;20446;-55
2021/10/17 13:03:10;;;;;;;9.23;1.17;;;;;;;;;;5073779;28;20380;-52
2021/10/17 13:05:37;;;;;;;;;;;;;;;;;;5074453;28;20029;-56
2021/10/17 13:08:04;;;;;;;10.45;1.20;;;;;;;;;;5073649;28;20432;-56
2021/10/17 13:10:31;;;;;;;13.13;1.40;;;;;;;;;;5073792;28;20146;-58
2021/10/17 13:12:59;;;;;;;4.90;1.10;;;;;;;;;;5073884;28;20028;-57
2021/10/17 13:15:32;;;;;;;5.78;1.08;;;;;;;;;;5073611;28;20496;-54
2021/10/17 13:18:02;;;;;;;8.57;1.40;;;;;;;;;;5073574;28;20032;-53
2021/10/17 13:20:30;;;;;;;5.18;1.30;;;;;;;;;;5073635;28;20032;-56
2021/10/17 13:22:59;;;;;;;8.38;1.23;;;;;;;;;;5073378;28;20025;-57
2021/10/17 13:25:27;;;;;;;3.72;1.15;;;;;;;;;;5073300;28;20483;-56
2021/10/17 13:27:54;;;;;;;8.32;1.10;;;;;;;;;;5073355;28;20468;-55
2021/10/17 13:30:25;;;;;;;7.40;0.93;;;;;;;;;;5073404;28;20026;-56
2021/10/17 13:32:52;;;;;;;5.85;0.80;;;;;;;;;;5073184;28;20021;-53
2021/10/17 13:35:20;;;;;;;4.55;0.90;;;;;;;;;;5072821;28;20032;-53
2021/10/17 13:37:47;;;;;;;8.35;1.30;;;;;;;;;;5072902;28;20131;-56
2021/10/17 13:40:21;;;;;;;3.97;1.00;;;;;;;;;;5073363;28;20506;-56
2021/10/17 13:42:52;;;;;;;5.43;1.00;;;;;;;;;;5073119;28;20025;-57
2021/10/17 13:45:19;;;;;;;4.65;1.05;;;;;;;;;;5073146;28;20032;-57
2021/10/17 13:47:46;;;;;;;3.88;0.82;;;;;;;;;;5073225;28;20056;-55
2021/10/17 13:50:14;;;;;;;4.38;1.00;;;;;;;;;;5072999;28;20521;-56
2021/10/17 13:52:41;;;;;;;8.00;0.93;;;;;;;;;;5073049;28;20483;-55
2021/10/17 13:55:11;;;;;;;6.63;0.82;;;;;;;;;;5072971;28;20019;-55
2021/10/17 13:57:39;;;;;;;7.82;0.90;;;;;;;;;;5072558;28;20499;-58
2021/10/17 14:00:10;;;;;;;7.22;0.70;;;;;;;;;;5072771;28;20083;-58
2021/10/17 14:02:37;;;;;;;5.43;0.80;;;;;;;;;;5072777;28;20056;-57
2021/10/17 14:05:05;;;;;;;4.85;0.90;;;;;;;;;;5072592;28;20020;-56
2021/10/17 14:07:32;;;;;;;6.35;0.70;;;;;;;;;;5072629;28;20028;-56
2021/10/17 14:09:59;;;;;;;5.53;1.02;;;;;;;;;;5072676;28;20020;-54
2021/10/17 14:12:26;;;;;;;5.90;1.00;;;;;;;;;;5071674;28;20020;-56
2021/10/17 14:14:53;;;;;;;3.72;0.90;;;;;;;;;;5072529;28;20048;-55
2021/10/17 14:17:21;;;;;;;3.67;0.93;;;;;;;;;;5072495;28;20032;-56
2021/10/17 14:19:48;;;;;;;3.72;0.60;;;;;;;;;;5072669;28;20476;-55
2021/10/17 14:22:15;;;;;;;2.72;0.95;;;;;;;;;;5072468;28;20032;-55
2021/10/17 14:24:42;;;;;;;3.47;1.10;;;;;;;;;;5072333;28;20024;-57
2021/10/17 14:27:09;;;;;;;2.25;0.88;;;;;;;;;;5072585;28;20387;-55
2021/10/17 14:29:36;;;;;;;6.40;0.80;;;;;;;;;;5072442;28;20020;-58
2021/10/17 14:32:06;;;;;;;1.67;0.80;;;;;;;;;;5072085;28;20500;-55
2021/10/17 14:34:33;;;;;;;4.18;0.70;;;;;;;;;;5072301;28;20020;-56
2021/10/17 14:37:01;;;;;;;2.72;0.90;;;;;;;;;;5071987;28;20063;-52
2021/10/17 14:39:28;;;;;;;2.83;0.98;;;;;;;;;;5072181;28;20020;-55
2021/10/17 14:41:55;;;;;;;3.03;1.00;;;;;;;;;;5072095;28;20032;-55
2021/10/17 14:44:22;;;;;;;1.55;0.70;;;;;;;;;;5072261;28;20031;-56